createdAt,value
2018-05-23T00:00:44.318Z,77.20
2018-05-23T00:03:11.954Z,77.00
2018-05-23T00:05:39.463Z,77.20
2018-05-23T00:08:06.991Z,77.30
2018-05-23T00:10:35.326Z,77.40
2018-05-23T00:13:02.821Z,77.30
2018-05-23T00:15:30.473Z,77.10
2018-05-23T00:17:58.024Z,77.00
2018-05-23T00:20:25.597Z,77.00
2018-05-23T00:22:53.185Z,77.20
2018-05-23T00:25:20.737Z,76.90
2018-05-23T00:27:48.339Z,77.20
2018-05-23T00:47:21.325Z,77.40
2018-05-23T00:49:48.953Z,77.40
2018-05-23T00:52:17.302Z,77.60
2018-05-23T01:11:50.190Z,77.80
2018-05-23T01:14:17.725Z,77.60
2018-05-23T01:16:45.370Z,77.70
2018-05-23T01:19:12.889Z,77.90
2018-05-23T01:21:40.477Z,77.80
2018-05-23T01:24:08.094Z,77.80
2018-05-23T01:26:35.732Z,77.90
2018-05-23T01:29:03.551Z,78.10
2018-05-23T01:31:31.086Z,78.00
2018-05-23T01:33:58.812Z,78.10
2018-05-23T01:44:58.149Z,78.30
2018-05-23T01:47:25.728Z,78.20
2018-05-23T01:49:53.419Z,78.30
2018-05-23T01:52:20.952Z,78.20
2018-05-23T01:54:53.089Z,78.30
2018-05-23T01:57:21.399Z,78.30
2018-05-23T01:59:49.000Z,78.20
2018-05-23T02:02:16.559Z,78.20
2018-05-23T02:04:44.100Z,78.30
2018-05-23T02:07:11.750Z,78.20
2018-05-23T02:09:39.301Z,78.10
2018-05-23T02:12:06.858Z,78.20
2018-05-23T02:14:34.430Z,78.20
2018-05-23T02:17:01.949Z,78.20
2018-05-23T02:19:29.475Z,78.40
2018-05-23T02:21:57.128Z,79.20
2018-05-23T02:24:24.681Z,78.20
2018-05-23T02:26:52.202Z,78.20
2018-05-23T02:29:19.847Z,78.20
2018-05-23T02:31:47.348Z,78.30
2018-05-23T02:34:14.899Z,78.30
2018-05-23T02:53:46.754Z,78.40
2018-05-23T02:56:14.297Z,78.30
2018-05-23T02:58:41.808Z,78.50
2018-05-23T03:01:09.439Z,78.40
2018-05-23T03:03:37.051Z,78.30
2018-05-23T03:06:04.669Z,78.30
2018-05-23T03:08:32.953Z,78.60
2018-05-23T03:11:00.571Z,78.60
2018-05-23T03:13:28.110Z,78.60
2018-05-23T03:15:55.641Z,78.60
2018-05-23T03:18:23.251Z,78.60
2018-05-23T03:20:50.820Z,78.50
2018-05-23T03:23:18.342Z,78.60
2018-05-23T03:25:46.070Z,78.70
2018-05-23T03:28:14.355Z,78.60
2018-05-23T03:30:41.939Z,78.60
2018-05-23T03:33:09.549Z,78.70
2018-05-23T03:35:38.034Z,78.80
2018-05-23T03:38:05.603Z,78.80
2018-05-23T06:48:14.255Z,81.00
2018-05-23T07:08:09.676Z,80.00
2018-05-23T07:10:41.166Z,79.90
2018-05-23T07:13:09.105Z,79.70
2018-05-23T07:15:36.817Z,79.80
2018-05-23T07:18:04.634Z,79.50
2018-05-23T07:32:55.053Z,79.10
2018-05-23T08:05:05.918Z,77.90
2018-05-23T08:19:19.098Z,77.30
2018-05-23T08:39:06.879Z,76.00
2018-05-23T08:41:52.949Z,75.70
2018-05-23T08:44:24.593Z,75.70
2018-05-23T08:46:53.840Z,75.40
2018-05-23T08:49:34.996Z,75.50
2018-05-23T09:00:32.634Z,74.80
2018-05-23T09:06:10.826Z,74.70
2018-05-23T09:08:38.372Z,74.90
2018-05-23T09:11:05.925Z,74.90
2018-05-23T09:13:33.437Z,74.90
2018-05-23T09:16:00.985Z,74.80
2018-05-23T09:18:28.506Z,74.70
2018-05-23T09:20:56.157Z,74.60
2018-05-23T09:23:24.492Z,74.10
2018-05-23T09:25:52.080Z,74.00
2018-05-23T09:28:19.583Z,73.90
2018-05-23T09:30:47.165Z,73.80
2018-05-23T09:33:18.460Z,73.40
2018-05-23T09:35:49.793Z,72.70
2018-05-23T09:38:17.323Z,72.50
2018-05-23T09:40:45.806Z,72.50
2018-05-23T09:43:13.450Z,72.20
2018-05-23T09:45:41.932Z,71.80
2018-05-23T09:48:15.170Z,71.90
2018-05-23T09:50:43.647Z,71.90
2018-05-23T09:53:11.876Z,71.80
2018-05-23T09:55:54.033Z,72.10
2018-05-23T10:13:08.938Z,73.50
2018-05-23T10:30:29.413Z,75.30
2018-05-23T11:36:37.702Z,77.10
2018-05-23T11:57:00.327Z,77.00
2018-05-23T12:50:31.358Z,78.30
2018-05-23T13:04:44.136Z,78.10
2018-05-23T13:07:11.799Z,78.00
2018-05-23T13:09:40.505Z,77.70
2018-05-23T13:12:08.926Z,77.80
2018-05-23T14:31:07.884Z,76.40
2018-05-23T15:13:21.814Z,75.10
2018-05-23T15:15:49.542Z,74.80
2018-05-23T15:18:20.859Z,74.50
2018-05-23T15:20:50.318Z,74.00
2018-05-23T15:23:25.230Z,73.90
2018-05-23T15:25:59.745Z,73.30
2018-05-23T15:28:27.301Z,72.60
2018-05-23T15:30:55.638Z,72.70
2018-05-23T15:33:24.346Z,72.40
2018-05-23T15:35:51.889Z,72.40
2018-05-23T15:38:27.149Z,71.70
2018-05-23T15:43:29.954Z,71.10
2018-05-23T15:45:57.516Z,71.10
2018-05-23T15:54:22.878Z,70.40
2018-05-23T15:56:57.992Z,70.00
2018-05-23T15:59:42.449Z,69.30
2018-05-23T16:10:57.221Z,69.70
2018-05-23T16:31:00.101Z,67.30
2018-05-23T17:05:42.464Z,64.60
2018-05-23T17:32:13.163Z,64.10
2018-05-23T17:49:32.882Z,63.30
2018-05-23T17:52:21.904Z,63.30
2018-05-23T17:54:56.390Z,63.60
2018-05-23T17:57:23.978Z,63.50
2018-05-23T17:59:53.692Z,63.30
2018-05-23T18:02:22.210Z,63.40
2018-05-23T18:07:53.132Z,63.60
2018-05-23T18:13:23.804Z,63.20
2018-05-23T18:33:11.837Z,63.30
2018-05-23T18:35:39.591Z,63.50
2018-05-23T18:55:15.288Z,64.00
2018-05-23T19:12:21.193Z,64.50
2018-05-23T19:14:48.804Z,64.30
2018-05-23T19:17:16.315Z,64.40
2018-05-23T19:19:43.891Z,64.50
2018-05-23T19:22:11.394Z,64.40
2018-05-23T19:24:52.844Z,64.40
2018-05-23T19:27:20.365Z,64.50
2018-05-23T19:29:47.934Z,64.50
2018-05-23T19:32:15.412Z,64.70
2018-05-23T19:34:42.924Z,64.60
2018-05-23T19:37:10.414Z,64.70
2018-05-23T19:56:42.132Z,64.80
2018-05-23T19:59:09.745Z,64.50
2018-05-23T20:01:37.376Z,64.30
2018-05-23T20:04:04.929Z,64.50
2018-05-23T20:06:32.493Z,64.40
2018-05-23T20:09:00.009Z,64.20
2018-05-23T20:11:27.541Z,64.10
2018-05-23T20:13:55.185Z,64.20
2018-05-23T20:16:22.733Z,63.90
2018-05-23T20:24:40.940Z,64.00
2018-05-23T20:38:37.301Z,63.80
2018-05-23T20:41:06.057Z,63.60
2018-05-23T20:43:33.631Z,63.50
2018-05-23T20:46:01.128Z,63.70
2018-05-23T20:48:28.790Z,63.60
2018-05-23T20:50:56.360Z,63.70
2018-05-23T20:56:14.484Z,63.90
2018-05-23T20:58:42.927Z,64.10
2018-05-23T21:01:10.395Z,64.00
2018-05-23T21:03:38.116Z,64.10
2018-05-23T21:23:10.861Z,63.90
2018-05-23T21:25:38.396Z,64.00
2018-05-23T21:28:05.913Z,63.80
2018-05-23T21:30:34.222Z,63.90
2018-05-23T21:33:01.853Z,63.90
2018-05-23T21:35:30.168Z,63.60
2018-05-23T21:38:03.761Z,63.60
2018-05-23T21:40:31.310Z,63.70
2018-05-23T21:51:53.582Z,63.50
2018-05-23T21:54:21.279Z,63.60
2018-05-23T21:56:48.807Z,63.50
2018-05-23T21:59:16.382Z,63.30
2018-05-23T22:01:44.704Z,63.60
2018-05-23T22:04:12.220Z,63.40
2018-05-23T22:06:40.640Z,63.60
2018-05-23T22:09:08.199Z,63.50
2018-05-23T22:11:35.745Z,63.50
2018-05-23T22:14:03.361Z,63.60
2018-05-23T22:16:30.913Z,63.50
2018-05-23T22:18:58.424Z,64.30
2018-05-23T22:21:35.029Z,63.60
2018-05-23T22:24:02.616Z,63.60
2018-05-23T22:26:30.927Z,63.60
2018-05-23T22:28:59.073Z,63.60
2018-05-23T22:31:26.650Z,63.60
2018-05-23T22:33:54.254Z,63.50
2018-05-23T22:36:22.145Z,63.70
2018-05-23T22:38:50.015Z,63.80
2018-05-23T22:41:17.737Z,63.90
2018-05-23T22:43:45.295Z,63.90
2018-05-23T22:46:32.626Z,64.10
2018-05-23T22:49:00.192Z,64.00
2018-05-23T22:51:28.815Z,64.20
2018-05-23T22:53:56.415Z,64.30
2018-05-23T22:56:23.997Z,64.30
2018-05-23T22:59:09.926Z,64.50
2018-05-23T23:01:38.261Z,65.20
2018-05-23T23:04:05.788Z,64.70
2018-05-23T23:06:33.388Z,64.70
2018-05-23T23:09:01.519Z,64.90
2018-05-23T23:11:29.826Z,65.20
2018-05-23T23:13:57.380Z,65.10
2018-05-23T23:36:19.709Z,65.40
2018-05-23T23:38:47.405Z,65.20
2018-05-23T23:41:14.939Z,65.30
2018-05-23T23:43:59.481Z,65.40
2018-05-23T23:46:27.037Z,65.30
2018-05-23T23:48:54.573Z,65.30
2018-05-23T23:51:22.186Z,65.30
2018-05-23T23:53:53.553Z,65.40
2018-05-23T23:56:21.124Z,65.40
2018-05-23T23:58:48.687Z,65.30
